Time;durP1;ratioP1;P1;durP2;ratioP2;P2;SDS_P1;SDS_P2;PMS_P1;PMS_P2;Temp;Humidity;BMP_temperature;BMP_pressure;BME280_temperature;BME280_humidity;BME280_pressure;Samples;Min_cycle;Max_cycle;Signal;HPM_P1;HPM_P2
2022/05/13 00:01:08;;;;;;;10.38;2.30;;;11.90;91.70;;;;;;5111529;28;20039;-56
2022/05/13 00:03:35;;;;;;;9.98;2.60;;;11.90;91.80;;;;;;5111462;28;20020;-55
2022/05/13 00:06:02;;;;;;;10.02;2.20;;;11.90;91.70;;;;;;5104686;28;20017;-47
2022/05/13 00:08:27;;;;;;;14.00;2.40;;;11.80;91.80;;;;;;5090933;28;20093;-48
2022/05/13 00:10:54;;;;;;;13.60;2.58;;;11.80;91.90;;;;;;5091155;28;20021;-52
2022/05/13 00:13:20;;;;;;;11.45;2.50;;;11.80;91.90;;;;;;5090863;28;20384;-50
2022/05/13 00:15:46;;;;;;;10.15;2.05;;;11.80;91.90;;;;;;5090822;28;20028;-53
2022/05/13 00:18:12;;;;;;;11.02;2.13;;;11.70;91.90;;;;;;5090803;28;20107;-49
2022/05/13 00:20:38;;;;;;;10.20;2.40;;;11.70;92.00;;;;;;5090805;28;20501;-60
2022/05/13 00:23:05;;;;;;;9.02;2.00;;;11.60;92.00;;;;;;5093553;28;20070;-45
2022/05/13 00:25:34;;;;;;;12.30;2.25;;;11.60;92.10;;;;;;5094781;28;20393;-61
2022/05/13 00:28:01;;;;;;;12.07;2.22;;;11.50;92.10;;;;;;5094841;28;20069;-61
2022/05/13 00:30:29;;;;;;;9.35;2.45;;;11.50;92.20;;;;;;5094689;28;20020;-56
2022/05/13 00:32:54;;;;;;;8.57;2.00;;;11.40;92.20;;;;;;5094705;28;20062;-52
2022/05/13 00:35:21;;;;;;;10.45;1.80;;;11.40;92.30;;;;;;5094490;28;20074;-57
2022/05/13 00:37:47;;;;;;;9.10;1.95;;;11.40;92.40;;;;;;5114466;28;20598;-54
2022/05/13 00:40:14;;;;;;;9.65;2.25;;;11.30;92.30;;;;;;5114922;28;20106;-48
2022/05/13 00:42:40;;;;;;;11.90;2.00;;;11.30;92.40;;;;;;5114928;27;20071;-54
2022/05/13 00:45:07;;;;;;;11.77;2.17;;;11.30;92.40;;;;;;5114914;28;20107;-57
2022/05/13 00:47:32;;;;;;;9.30;2.47;;;11.30;92.40;;;;;;5113413;28;20036;-49
2022/05/13 00:50:01;;;;;;;9.60;2.28;;;11.20;92.40;;;;;;5114744;27;20020;-53
2022/05/13 00:52:27;;;;;;;6.80;2.10;;;11.20;92.40;;;;;;5114643;28;20027;-39
2022/05/13 00:54:54;;;;;;;8.98;1.90;;;11.20;92.40;;;;;;5113291;28;20026;-53
2022/05/13 00:57:21;;;;;;;8.93;1.90;;;11.10;92.40;;;;;;5114538;28;20452;-54
2022/05/13 00:59:50;;;;;;;10.13;2.10;;;11.10;92.40;;;;;;5114452;28;20391;-58
2022/05/13 01:02:16;;;;;;;11.65;2.47;;;11.00;92.40;;;;;;5114507;28;20032;-51
2022/05/13 01:04:43;;;;;;;9.27;2.00;;;11.00;92.30;;;;;;5114457;27;20094;-59
2022/05/13 01:07:16;;;;;;;6.75;1.80;;;11.00;92.30;;;;;;5096447;28;20115;-52
2022/05/13 01:09:49;;;;;;;8.25;1.90;;;11.00;92.30;;;;;;5094298;28;20028;-44
2022/05/13 01:12:20;;;;;;;6.43;1.83;;;11.00;92.30;;;;;;5093995;28;20036;-52
2022/05/13 01:14:52;;;;;;;11.05;1.60;;;10.90;92.40;;;;;;5093797;28;20028;-46
2022/05/13 01:20:12;;;;;;;5.75;1.40;;;10.90;92.50;;;;;;5094032;28;20090;-58
2022/05/13 01:22:47;;;;;;;11.52;2.10;;;10.90;92.50;;;;;;5093657;28;20034;-44
2022/05/13 01:25:15;;;;;;;11.90;2.50;;;10.80;92.60;;;;;;5093596;28;20507;-56
2022/05/13 01:27:44;;;;;;;8.25;1.95;;;10.80;92.60;;;;;;5093566;28;20099;-41
2022/05/13 01:30:12;;;;;;;9.00;1.70;;;10.80;92.70;;;;;;5093576;28;20066;-54
2022/05/13 01:32:38;;;;;;;6.03;1.63;;;10.80;92.90;;;;;;5092511;28;20029;-53
2022/05/13 01:35:05;;;;;;;6.43;1.98;;;10.80;93.00;;;;;;5093280;28;20127;-53
2022/05/13 01:37:31;;;;;;;7.18;1.60;;;10.70;92.90;;;;;;5113382;28;20035;-47
2022/05/13 01:39:57;;;;;;;9.80;1.85;;;10.70;92.90;;;;;;5113772;28;20023;-53
2022/05/13 01:42:22;;;;;;;11.98;2.10;;;10.70;92.90;;;;;;5113719;28;20031;-44
2022/05/13 01:44:48;;;;;;;8.25;1.73;;;10.80;92.90;;;;;;5113642;28;20169;-53
2022/05/13 01:47:14;;;;;;;7.93;2.20;;;10.70;92.80;;;;;;5113651;28;20034;-53
2022/05/13 01:49:39;;;;;;;7.05;1.80;;;10.70;92.90;;;;;;5113418;28;20120;-51
2022/05/13 01:52:05;;;;;;;6.80;1.67;;;10.70;92.80;;;;;;5113445;28;20028;-56
2022/05/13 01:54:31;;;;;;;7.05;1.48;;;10.70;92.80;;;;;;5113318;28;20098;-54
2022/05/13 01:56:57;;;;;;;8.82;1.67;;;10.60;92.60;;;;;;5113260;28;20622;-56
2022/05/13 01:59:22;;;;;;;7.00;1.58;;;10.60;92.50;;;;;;5113577;28;20024;-51
2022/05/13 02:01:48;;;;;;;8.65;1.85;;;10.60;92.50;;;;;;5113333;28;20027;-54
2022/05/13 02:04:14;;;;;;;5.00;1.30;;;10.60;92.50;;;;;;5113303;28;20376;-52
2022/05/13 02:06:39;;;;;;;6.22;1.42;;;10.60;92.40;;;;;;5099501;28;20546;-52
2022/05/13 02:09:05;;;;;;;6.47;1.75;;;10.50;92.40;;;;;;5092529;28;20032;-57
2022/05/13 02:11:31;;;;;;;4.50;1.40;;;10.50;92.30;;;;;;5091332;28;20024;-47
2022/05/13 02:13:58;;;;;;;4.30;1.30;;;10.40;92.20;;;;;;5077519;28;20029;-53
2022/05/13 02:16:23;;;;;;;7.65;1.35;;;10.40;92.20;;;;;;5072279;28;20070;-52
2022/05/13 02:18:49;;;;;;;7.05;1.70;;;10.40;92.00;;;;;;5070804;28;20025;-39
2022/05/13 02:21:17;;;;;;;6.38;2.08;;;10.40;91.80;;;;;;5072126;28;20032;-46
2022/05/13 02:23:43;;;;;;;5.88;1.35;;;10.40;91.80;;;;;;5072153;28;20115;-49
2022/05/13 02:26:11;;;;;;;4.13;1.30;;;10.40;92.00;;;;;;5079806;28;20099;-38
2022/05/13 02:28:38;;;;;;;7.30;1.23;;;10.40;91.80;;;;;;5112852;28;20537;-49
2022/05/13 02:31:04;;;;;;;4.82;1.40;;;10.40;91.90;;;;;;5112878;28;20024;-40
2022/05/13 02:33:31;;;;;;;5.60;1.83;;;10.40;91.80;;;;;;5112714;28;20024;-47
2022/05/13 02:35:57;;;;;;;5.72;1.55;;;10.40;91.70;;;;;;5112740;28;20046;-47
2022/05/13 02:38:23;;;;;;;5.13;1.77;;;10.40;91.60;;;;;;5112874;28;20114;-50
2022/05/13 02:43:34;;;;;;;6.05;1.50;;;10.40;91.80;;;;;;5112710;28;20063;-48
2022/05/13 02:45:59;;;;;;;3.78;1.40;;;10.30;91.60;;;;;;5112565;27;20096;-58
2022/05/13 02:48:25;;;;;;;4.90;1.30;;;10.30;91.70;;;;;;5110642;28;20388;-53
2022/05/13 02:50:51;;;;;;;7.68;1.40;;;10.30;91.70;;;;;;5112169;28;20031;-52
2022/05/13 02:53:17;;;;;;;6.78;1.60;;;10.20;91.60;;;;;;5112477;28;20024;-47
2022/05/13 02:55:42;;;;;;;4.82;1.60;;;10.20;91.70;;;;;;5112097;28;20153;-50
2022/05/13 02:58:08;;;;;;;3.83;1.10;;;10.20;91.60;;;;;;5112532;28;20388;-48
2022/05/13 03:00:34;;;;;;;8.52;1.52;;;10.20;91.80;;;;;;5112235;28;20097;-46
2022/05/13 03:03:00;;;;;;;4.78;1.20;;;10.20;91.80;;;;;;5112307;28;20023;-53
2022/05/13 03:05:26;;;;;;;5.13;1.30;;;10.20;91.80;;;;;;5112192;28;20031;-47
2022/05/13 03:07:52;;;;;;;6.05;1.50;;;10.20;91.80;;;;;;5112187;28;20114;-42
2022/05/13 03:10:19;;;;;;;6.35;1.38;;;10.20;91.90;;;;;;5112152;28;20111;-60
2022/05/13 03:12:45;;;;;;;4.68;1.30;;;10.20;91.90;;;;;;5112016;28;20484;-47
2022/05/13 03:15:12;;;;;;;8.18;1.23;;;10.20;92.00;;;;;;5111892;28;20015;-46
2022/05/13 03:17:39;;;;;;;4.78;1.25;;;10.20;91.80;;;;;;5110975;28;20126;-50
2022/05/13 03:20:07;;;;;;;4.43;1.23;;;10.20;91.90;;;;;;5111663;28;20053;-42
2022/05/13 03:22:33;;;;;;;6.28;1.50;;;10.20;91.90;;;;;;5111807;28;20058;-55
2022/05/13 03:24:59;;;;;;;9.10;1.50;;;10.10;91.80;;;;;;5105744;28;20016;-58
2022/05/13 03:27:26;;;;;;;3.67;1.50;;;10.20;91.70;;;;;;5091389;28;20020;-48
2022/05/13 03:29:52;;;;;;;3.47;1.48;;;10.20;91.60;;;;;;5091508;28;20054;-55
2022/05/13 03:32:18;;;;;;;5.38;1.40;;;10.20;92.00;;;;;;5091276;28;20032;-55
2022/05/13 03:34:43;;;;;;;5.28;1.45;;;10.10;91.80;;;;;;5090011;28;20048;-58
2022/05/13 03:37:09;;;;;;;5.30;1.42;;;10.10;91.80;;;;;;5091290;28;20032;-59
2022/05/13 03:39:35;;;;;;;6.88;1.55;;;10.10;91.70;;;;;;5091241;28;20016;-42
2022/05/13 03:42:01;;;;;;;4.70;1.30;;;10.10;91.70;;;;;;5091447;28;20028;-58
2022/05/13 03:44:27;;;;;;;4.38;1.50;;;10.10;91.80;;;;;;5091299;28;20434;-58
2022/05/13 03:46:52;;;;;;;5.10;1.15;;;10.10;91.70;;;;;;5096221;28;20110;-53
2022/05/13 03:49:18;;;;;;;5.43;1.50;;;10.10;91.80;;;;;;5111228;28;20023;-49
2022/05/13 03:51:44;;;;;;;4.05;1.30;;;10.10;91.70;;;;;;5111573;28;20023;-52
2022/05/13 03:54:09;;;;;;;6.93;1.48;;;10.10;91.90;;;;;;5111564;28;20024;-57
2022/05/13 03:56:35;;;;;;;6.25;1.50;;;10.00;91.90;;;;;;5112947;28;20020;-42
2022/05/13 03:59:02;;;;;;;6.30;1.40;;;10.00;91.90;;;;;;5115393;28;20035;-58
2022/05/13 04:01:28;;;;;;;6.32;1.30;;;10.00;91.80;;;;;;5115695;28;20096;-52
2022/05/13 04:03:54;;;;;;;4.35;1.40;;;10.00;91.70;;;;;;5115558;28;20482;-44
2022/05/13 04:09:05;;;;;;;5.25;1.52;;;10.00;92.00;;;;;;5115856;28;20076;-57
2022/05/13 04:11:34;;;;;;;3.83;1.20;;;10.00;92.00;;;;;;5115576;28;20027;-55
2022/05/13 04:16:44;;;;;;;7.05;1.95;;;10.00;91.80;;;;;;5111123;28;20043;-52
2022/05/13 04:19:11;;;;;;;7.22;1.40;;;10.00;91.80;;;;;;5094972;28;20067;-57
2022/05/13 04:21:39;;;;;;;4.63;1.50;;;10.00;91.70;;;;;;5093486;28;20378;-45
2022/05/13 04:24:08;;;;;;;3.88;1.30;;;10.00;91.90;;;;;;5076888;28;20081;-38
2022/05/13 04:26:34;;;;;;;3.70;1.48;;;10.00;92.10;;;;;;5094836;28;20031;-40
2022/05/13 04:29:01;;;;;;;5.35;1.80;;;10.00;92.10;;;;;;5093532;28;20070;-40
2022/05/13 04:31:30;;;;;;;5.18;2.00;;;10.10;92.10;;;;;;5094685;28;20024;-46
2022/05/13 04:33:56;;;;;;;6.73;1.90;;;10.10;92.10;;;;;;5094508;28;20520;-50
2022/05/13 04:36:23;;;;;;;6.95;1.60;;;10.10;91.90;;;;;;5094457;28;20715;-48
2022/05/13 04:38:50;;;;;;;3.88;1.33;;;10.10;92.30;;;;;;5094498;28;20016;-57
2022/05/13 04:44:00;;;;;;;7.43;1.55;;;10.20;92.30;;;;;;5094558;28;20023;-57
2022/05/13 04:46:26;;;;;;;6.45;1.50;;;10.30;92.50;;;;;;5098024;28;20026;-58
2022/05/13 04:48:53;;;;;;;4.70;1.48;;;10.30;91.90;;;;;;5112986;28;20049;-62
2022/05/13 04:51:20;;;;;;;11.02;1.73;;;10.40;92.00;;;;;;5105505;28;20019;-58
2022/05/13 04:53:48;;;;;;;5.90;1.58;;;10.40;91.60;;;;;;5087124;28;20025;-42
2022/05/13 04:56:13;;;;;;;6.95;1.52;;;10.50;91.90;;;;;;5087297;28;20032;-37
2022/05/13 04:58:39;;;;;;;7.50;1.70;;;10.60;91.80;;;;;;5081754;28;20024;-42
2022/05/13 05:01:07;;;;;;;10.50;1.98;;;10.70;91.40;;;;;;5090080;28;20020;-43
2022/05/13 05:03:35;;;;;;;13.93;3.03;;;10.80;91.20;;;;;;5094075;28;20031;-39
2022/05/13 05:06:02;;;;;;;8.65;2.38;;;10.80;91.00;;;;;;5088761;28;20036;-37
2022/05/13 05:08:29;;;;;;;6.18;1.90;;;10.90;91.20;;;;;;5078888;28;20028;-37
2022/05/13 05:10:56;;;;;;;7.85;1.60;;;11.00;91.30;;;;;;5076297;28;20031;-45
2022/05/13 05:13:25;;;;;;;10.38;1.70;;;11.00;91.20;;;;;;5093879;28;20103;-38
2022/05/13 05:15:51;;;;;;;9.50;1.88;;;11.10;90.70;;;;;;5089637;28;20020;-38
2022/05/13 05:18:17;;;;;;;7.03;1.83;;;11.30;90.60;;;;;;5090052;28;20499;-37
2022/05/13 05:20:44;;;;;;;6.18;1.75;;;11.30;90.10;;;;;;5092721;28;20021;-42
2022/05/13 05:23:19;;;;;;;7.88;1.77;;;11.40;89.60;;;;;;5082244;28;20030;-56
2022/05/13 05:25:45;;;;;;;11.45;1.73;;;11.50;90.30;;;;;;5081182;28;20058;-57
2022/05/13 05:28:11;;;;;;;4.60;1.33;;;11.60;89.70;;;;;;5091726;28;20059;-53
2022/05/13 05:30:37;;;;;;;5.05;1.40;;;11.70;88.90;;;;;;5078931;28;20121;-51
2022/05/13 05:33:02;;;;;;;4.78;1.50;;;11.80;89.70;;;;;;5081846;28;20032;-60
2022/05/13 05:35:29;;;;;;;4.50;1.65;;;11.90;89.20;;;;;;5073077;28;20052;-53
2022/05/13 05:37:55;;;;;;;7.13;2.22;;;12.10;88.70;;;;;;5073332;28;20064;-41
2022/05/13 05:40:22;;;;;;;8.38;1.88;;;12.20;88.20;;;;;;5073492;28;20028;-53
2022/05/13 05:42:50;;;;;;;8.13;1.50;;;12.50;88.20;;;;;;5090933;28;20027;-53
2022/05/13 05:45:18;;;;;;;7.78;1.77;;;12.80;86.20;;;;;;5093320;28;20579;-51
2022/05/13 05:47:44;;;;;;;5.93;1.77;;;13.00;82.70;;;;;;5091827;28;20484;-58
2022/05/13 05:50:14;;;;;;;8.05;1.73;;;13.30;83.60;;;;;;5084484;28;20078;-51
2022/05/13 05:52:40;;;;;;;6.80;1.60;;;13.80;79.00;;;;;;5079851;28;20086;-58
2022/05/13 05:58:05;;;;;;;4.65;1.50;;;14.60;77.20;;;;;;5090245;28;20070;-53
2022/05/13 06:00:34;;;;;;;10.48;1.40;;;15.10;76.60;;;;;;5092170;28;20073;-61
2022/05/13 06:03:00;;;;;;;5.72;1.33;;;15.40;74.40;;;;;;5092592;28;20028;-47
2022/05/13 06:05:26;;;;;;;6.72;1.50;;;15.80;72.40;;;;;;5092827;28;20034;-54
2022/05/13 06:07:55;;;;;;;7.72;1.58;;;16.20;72.20;;;;;;5091446;28;20028;-57
2022/05/13 06:10:21;;;;;;;7.15;1.20;;;16.40;68.90;;;;;;5091439;28;20028;-59
2022/05/13 06:12:46;;;;;;;8.95;1.95;;;16.30;71.30;;;;;;5092431;28;20103;-58
2022/05/13 06:15:13;;;;;;;6.93;1.58;;;16.50;67.30;;;;;;5091223;28;20031;-40
2022/05/13 06:17:49;;;;;;;7.82;1.55;;;16.40;68.40;;;;;;5090843;28;20472;-42
2022/05/13 06:20:17;;;;;;;6.57;1.50;;;16.60;68.60;;;;;;5090600;28;20035;-51
2022/05/13 06:22:43;;;;;;;4.93;1.48;;;16.90;65.80;;;;;;5090944;28;20084;-49
2022/05/13 06:25:12;;;;;;;10.55;1.70;;;17.00;68.10;;;;;;5091192;28;20103;-54
2022/05/13 06:27:38;;;;;;;7.25;1.63;;;17.10;67.10;;;;;;5091207;28;20404;-53
2022/05/13 06:30:10;;;;;;;7.55;1.50;;;17.60;64.60;;;;;;5092119;28;20027;-55
2022/05/13 06:32:36;;;;;;;6.97;1.40;;;17.70;64.70;;;;;;5092098;28;20400;-57
2022/05/13 06:35:03;;;;;;;6.13;1.50;;;17.70;61.80;;;;;;5092277;28;20063;-59
2022/05/13 06:37:29;;;;;;;8.18;1.67;;;17.60;63.40;;;;;;5092251;28;20032;-49
2022/05/13 06:39:54;;;;;;;13.05;2.47;;;17.60;65.00;;;;;;5092182;28;20034;-50
2022/05/13 06:42:20;;;;;;;5.55;1.60;;;17.90;62.60;;;;;;5110812;28;20024;-45
2022/05/13 06:44:46;;;;;;;6.63;1.58;;;18.00;62.90;;;;;;5112579;28;20020;-53
2022/05/13 06:47:11;;;;;;;7.65;1.90;;;18.60;63.30;;;;;;5112620;28;20029;-53
2022/05/13 06:49:37;;;;;;;9.15;2.17;;;18.90;62.10;;;;;;5112464;28;20023;-51
2022/05/13 06:52:03;;;;;;;6.57;1.80;;;19.30;60.30;;;;;;5112516;28;20028;-54
2022/05/13 06:54:30;;;;;;;7.57;1.75;;;19.40;57.20;;;;;;5112330;28;20069;-56
2022/05/13 06:56:56;;;;;;;5.72;1.48;;;19.10;59.40;;;;;;5112221;28;20067;-53
2022/05/13 06:59:22;;;;;;;8.20;1.90;;;19.40;61.20;;;;;;5112241;28;20070;-50
2022/05/13 07:01:48;;;;;;;7.45;2.28;;;19.50;59.10;;;;;;5096884;28;20563;-52
2022/05/13 07:04:14;;;;;;;11.55;1.88;;;20.00;57.00;;;;;;5091951;28;20252;-54
2022/05/13 07:06:39;;;;;;;8.07;1.85;;;19.80;58.20;;;;;;5091681;28;20055;-54
2022/05/13 07:09:05;;;;;;;9.32;1.80;;;19.90;59.10;;;;;;5091667;28;20035;-50
2022/05/13 07:11:31;;;;;;;8.77;2.22;;;20.40;55.40;;;;;;5103174;28;20103;-50
2022/05/13 07:13:57;;;;;;;7.53;1.90;;;20.50;53.40;;;;;;5111907;28;20495;-55
2022/05/13 07:16:23;;;;;;;8.80;1.50;;;20.40;53.00;;;;;;5111907;28;20028;-42
2022/05/13 07:18:49;;;;;;;6.68;1.77;;;20.70;56.30;;;;;;5111633;28;20028;-50
2022/05/13 07:21:15;;;;;;;8.68;1.88;;;21.00;55.20;;;;;;5111855;28;20110;-47
2022/05/13 07:23:42;;;;;;;6.22;1.60;;;20.90;53.80;;;;;;5111693;28;20020;-50
2022/05/13 07:26:08;;;;;;;9.52;1.80;;;20.60;52.30;;;;;;5110525;28;20508;-54
2022/05/13 07:28:35;;;;;;;8.45;1.83;;;20.60;54.60;;;;;;5111624;28;20035;-48
2022/05/13 07:31:01;;;;;;;7.72;1.98;;;20.50;53.50;;;;;;5110842;28;20023;-47
2022/05/13 07:33:29;;;;;;;9.07;1.80;;;20.10;52.90;;;;;;5091067;28;20252;-41
2022/05/13 07:35:55;;;;;;;7.50;1.70;;;20.10;55.20;;;;;;5090444;28;20059;-50
2022/05/13 07:38:21;;;;;;;9.85;2.15;;;20.60;56.50;;;;;;5090384;28;20032;-49
2022/05/13 07:43:31;;;;;;;10.13;2.50;;;21.10;53.10;;;;;;5111330;28;20066;-58
2022/05/13 07:45:56;;;;;;;7.93;1.80;;;21.40;54.90;;;;;;5111278;28;20060;-50
2022/05/13 07:48:22;;;;;;;6.00;1.90;;;21.40;51.60;;;;;;5111449;28;20028;-55
2022/05/13 07:50:48;;;;;;;7.82;2.20;;;21.20;51.00;;;;;;5111447;28;20020;-44
2022/05/13 07:53:14;;;;;;;6.93;1.90;;;21.40;51.10;;;;;;5111560;28;20476;-51
2022/05/13 07:55:40;;;;;;;9.60;2.22;;;21.20;50.80;;;;;;5111358;28;20095;-57
2022/05/13 07:58:05;;;;;;;12.07;2.10;;;21.10;50.40;;;;;;5096838;28;20064;-47
2022/05/13 08:00:36;;;;;;;8.45;2.13;;;20.90;50.70;;;;;;5093342;28;20055;-58
2022/05/13 08:03:03;;;;;;;8.50;2.00;;;21.40;51.50;;;;;;5110935;28;20031;-51
2022/05/13 08:05:34;;;;;;;6.95;1.80;;;21.70;51.80;;;;;;5111373;28;20476;-52
2022/05/13 08:08:04;;;;;;;7.28;2.13;;;22.00;51.20;;;;;;5111340;28;20020;-48
2022/05/13 08:10:30;;;;;;;14.18;2.25;;;22.70;48.30;;;;;;5111375;28;20283;-55
2022/05/13 08:12:56;;;;;;;7.28;1.75;;;22.80;47.20;;;;;;5111181;28;20456;-50
2022/05/13 08:15:21;;;;;;;10.00;2.40;;;21.80;49.20;;;;;;5110006;28;20028;-61
2022/05/13 08:17:47;;;;;;;8.82;2.63;;;21.50;47.30;;;;;;5109895;28;20067;-57
2022/05/13 08:20:13;;;;;;;9.52;2.00;;;21.10;50.20;;;;;;5111239;28;20380;-51
2022/05/13 08:22:38;;;;;;;10.30;2.22;;;21.00;52.60;;;;;;5111083;28;20035;-57
2022/05/13 08:25:05;;;;;;;6.63;1.85;;;21.50;51.20;;;;;;5102475;28;20032;-54
2022/05/13 08:27:32;;;;;;;7.97;2.25;;;21.70;48.60;;;;;;5079736;28;20032;-41
2022/05/13 08:30:01;;;;;;;8.02;1.88;;;22.70;48.70;;;;;;5084213;28;20020;-39
2022/05/13 08:32:27;;;;;;;9.47;2.03;;;23.10;45.40;;;;;;5107142;28;20028;-45
2022/05/13 08:34:53;;;;;;;9.38;2.00;;;23.30;45.00;;;;;;5089115;28;20644;-56
2022/05/13 08:37:19;;;;;;;9.25;2.30;;;23.00;46.90;;;;;;5090696;28;20123;-49
2022/05/13 08:39:44;;;;;;;6.10;1.65;;;22.70;44.40;;;;;;5090786;28;20024;-52
2022/05/13 08:42:35;;;;;;;7.43;1.70;;;21.50;49.10;;;;;;5091391;28;20032;-50
2022/05/13 08:45:01;;;;;;;12.45;2.00;;;21.30;49.40;;;;;;5093072;28;20085;-52
2022/05/13 08:47:33;;;;;;;7.88;2.10;;;21.10;49.50;;;;;;5094347;28;20419;-56
2022/05/13 08:50:15;;;;;;;7.28;2.20;;;20.80;52.20;;;;;;5094014;28;20381;-49
2022/05/13 08:53:08;;;;;;;7.13;2.25;;;20.50;53.60;;;;;;5094213;28;20556;-51
2022/05/13 08:55:48;;;;;;;8.20;1.90;;;21.00;52.60;;;;;;5094583;28;20031;-49
2022/05/13 08:58:17;;;;;;;7.95;2.00;;;22.00;51.90;;;;;;5093807;28;20553;-52
2022/05/13 09:00:44;;;;;;;;;;;22.10;49.30;;;;;;5090121;28;20027;-44
2022/05/13 09:03:48;;;;;;;10.32;2.20;;;21.20;47.80;;;;;;5076014;28;19923;-41
2022/05/13 09:06:39;;;;;;;7.93;2.00;;;21.50;51.50;;;;;;5073415;28;20024;-39
2022/05/13 09:09:10;;;;;;;6.32;2.08;;;21.20;50.80;;;;;;5077039;28;20556;-39
2022/05/13 09:11:54;;;;;;;9.43;1.90;;;20.80;55.20;;;;;;5093379;28;20503;-54
2022/05/13 09:14:45;;;;;;;9.13;1.90;;;20.70;52.90;;;;;;5093203;28;20032;-57
2022/05/13 09:17:19;;;;;;;8.73;2.17;;;20.00;53.70;;;;;;5087575;28;20075;-44
2022/05/13 09:19:57;;;;;;;10.95;2.00;;;18.90;54.60;;;;;;5093412;28;20027;-52
2022/05/13 09:22:30;;;;;;;6.70;2.15;;;18.70;57.50;;;;;;5073749;28;20094;-51
2022/05/13 09:24:56;;;;;;;10.52;2.05;;;19.10;57.50;;;;;;5101951;28;20385;-53
2022/05/13 09:27:22;;;;;;;6.28;1.70;;;19.70;54.10;;;;;;5093745;28;20031;-46
2022/05/13 09:29:47;;;;;;;7.38;1.88;;;20.40;52.00;;;;;;5093040;28;20431;-53
2022/05/13 09:32:23;;;;;;;7.10;2.10;;;20.70;52.80;;;;;;5090802;28;20174;-58
2022/05/13 09:34:50;;;;;;;10.60;2.25;;;20.70;52.10;;;;;;5092165;28;20077;-50
2022/05/13 09:37:34;;;;;;;11.25;2.17;;;20.20;53.20;;;;;;5091491;28;20036;-54
2022/05/13 09:40:32;;;;;;;10.27;2.60;;;19.70;55.10;;;;;;5092143;28;20042;-49
2022/05/13 09:42:58;;;;;;;8.43;2.30;;;19.20;56.30;;;;;;5072731;28;20021;-44
2022/05/13 09:45:27;;;;;;;9.70;2.20;;;19.10;57.60;;;;;;5073129;28;20032;-52
2022/05/13 09:47:59;;;;;;;;;;;19.20;58.60;;;;;;5075941;28;20564;-41
2022/05/13 09:50:31;;;;;;;8.80;2.30;;;19.30;61.20;;;;;;5093369;28;20051;-49
2022/05/13 09:53:06;;;;;;;9.25;2.30;;;20.00;58.20;;;;;;5093950;28;20026;-45
2022/05/13 09:55:40;;;;;;;10.13;2.50;;;19.90;56.80;;;;;;5106783;28;20493;-51
2022/05/13 09:58:20;;;;;;;9.43;2.17;;;19.80;54.70;;;;;;5088263;28;20111;-50
2022/05/13 10:00:51;;;;;;;8.48;2.30;;;19.40;55.90;;;;;;5087520;28;20042;-47
2022/05/13 10:03:19;;;;;;;7.40;2.03;;;19.30;55.50;;;;;;5072539;28;20025;-53
2022/05/13 10:06:19;;;;;;;10.63;2.80;;;19.00;57.00;;;;;;5072609;28;20065;-53
2022/05/13 10:08:57;;;;;;;7.90;2.47;;;18.90;60.00;;;;;;5072636;28;20041;-55
2022/05/13 10:14:31;;;;;;;13.13;2.50;;;18.80;62.10;;;;;;5073285;28;20078;-50
2022/05/13 10:17:10;;;;;;;15.50;2.95;;;19.00;61.90;;;;;;5073125;28;20412;-52
2022/05/13 10:19:44;;;;;;;8.77;2.42;;;18.90;62.90;;;;;;5091105;28;20485;-44
2022/05/13 10:22:26;;;;;;;14.20;2.63;;;18.90;64.20;;;;;;5092476;28;20040;-45
2022/05/13 10:25:17;;;;;;;11.55;2.40;;;19.10;64.10;;;;;;5075937;28;20016;-57
2022/05/13 10:28:01;;;;;;;9.98;2.40;;;19.00;61.10;;;;;;5092502;28;20035;-44
2022/05/13 10:31:03;;;;;;;11.48;3.03;;;18.90;61.20;;;;;;5092363;28;20036;-50
2022/05/13 10:33:33;;;;;;;13.15;2.08;;;18.80;60.80;;;;;;5083108;28;20028;-47
2022/05/13 10:36:14;;;;;;;11.55;2.50;;;18.60;62.50;;;;;;5079853;28;20028;-49
2022/05/13 10:38:46;;;;;;;10.85;2.30;;;18.70;62.50;;;;;;5072123;28;20073;-48
2022/05/13 10:41:16;;;;;;;9.68;2.42;;;18.70;61.30;;;;;;5092312;28;20050;-53
2022/05/13 10:43:54;;;;;;;11.73;2.80;;;18.50;62.20;;;;;;5092127;28;20035;-48
2022/05/13 10:46:24;;;;;;;8.77;2.40;;;18.50;62.20;;;;;;5092140;28;20035;-57
2022/05/13 10:48:52;;;;;;;15.18;3.25;;;18.20;61.10;;;;;;5092225;28;20017;-60
2022/05/13 10:51:29;;;;;;;8.95;2.33;;;18.20;62.50;;;;;;5092130;28;20032;-58
2022/05/13 10:54:18;;;;;;;8.88;2.25;;;18.10;63.80;;;;;;5089531;28;20346;-52
2022/05/13 10:56:59;;;;;;;9.77;2.75;;;18.00;63.00;;;;;;5079855;28;20462;-59
2022/05/13 10:59:25;;;;;;;8.38;2.30;;;18.00;63.50;;;;;;5071622;28;20070;-54
2022/05/13 11:02:05;;;;;;;12.13;2.50;;;17.90;61.60;;;;;;5079995;28;20031;-49
2022/05/13 11:04:51;;;;;;;10.13;2.55;;;17.90;62.70;;;;;;5091141;28;20044;-53
2022/05/13 11:07:48;;;;;;;13.15;2.83;;;17.80;64.10;;;;;;5090854;28;20015;-52
2022/05/13 11:11:01;;;;;;;9.68;2.22;;;18.10;64.10;;;;;;5082605;28;20496;-54
2022/05/13 11:13:59;;;;;;;14.65;2.80;;;18.10;62.70;;;;;;5083022;28;20123;-61
2022/05/13 11:16:43;;;;;;;12.00;2.70;;;18.20;63.40;;;;;;5090050;28;20373;-54
2022/05/13 11:19:40;;;;;;;11.93;2.88;;;18.40;63.70;;;;;;5091559;28;20032;-59
2022/05/13 11:22:21;;;;;;;15.63;3.03;;;18.60;63.30;;;;;;5091526;28;20024;-55
2022/05/13 11:28:08;;;;;;;12.70;2.63;;;18.10;63.70;;;;;;5090685;28;20065;-55
2022/05/13 11:31:00;;;;;;;13.70;2.70;;;18.20;64.60;;;;;;5090870;28;20028;-51
2022/05/13 11:33:42;;;;;;;11.30;2.95;;;18.10;65.80;;;;;;5090648;28;20488;-49
2022/05/13 11:36:29;;;;;;;14.38;3.00;;;18.50;65.60;;;;;;5085101;28;20032;-42
2022/05/13 11:39:40;;;;;;;11.50;2.90;;;18.40;63.60;;;;;;5071121;28;20115;-45
2022/05/13 11:42:26;;;;;;;12.27;2.80;;;18.60;63.10;;;;;;5070030;28;20031;-50
2022/05/13 11:45:11;;;;;;;12.77;2.60;;;18.60;64.80;;;;;;5049725;28;20558;-52
2022/05/13 11:47:58;;;;;;;11.63;2.25;;;19.00;64.80;;;;;;5070948;28;20477;-55
2022/05/13 11:50:26;;;;;;;8.30;2.53;;;19.70;59.80;;;;;;5071008;28;20500;-41
2022/05/13 11:52:53;;;;;;;11.55;3.00;;;20.10;63.40;;;;;;5082361;28;20065;-51
2022/05/13 11:55:50;;;;;;;11.27;2.97;;;20.20;57.40;;;;;;5109819;28;20042;-41
2022/05/13 11:58:55;;;;;;;16.92;5.55;;;20.00;59.10;;;;;;5097716;28;20074;-49
2022/05/13 12:01:43;;;;;;;13.57;6.18;;;19.80;59.60;;;;;;5090944;28;20027;-51
2022/05/13 12:04:16;;;;;;;12.48;4.13;;;19.50;60.60;;;;;;5090806;28;20392;-42
2022/05/13 12:06:50;;;;;;;9.65;3.05;;;19.50;58.70;;;;;;5090470;28;20024;-43
2022/05/13 12:09:35;;;;;;;12.32;2.90;;;19.00;60.00;;;;;;5090694;28;20082;-41
2022/05/13 12:12:07;;;;;;;13.70;2.92;;;18.90;60.20;;;;;;5090875;28;20028;-43
2022/05/13 12:14:39;;;;;;;13.93;2.65;;;18.90;63.00;;;;;;5090846;28;20028;-43
2022/05/13 12:17:07;;;;;;;12.13;2.88;;;19.30;61.20;;;;;;5091380;28;20040;-42
2022/05/13 12:19:52;;;;;;;10.27;2.33;;;19.40;63.30;;;;;;5094759;28;20051;-40
2022/05/13 12:22:36;;;;;;;10.80;2.95;;;19.60;60.60;;;;;;5093943;28;20281;-40
2022/05/13 12:25:09;;;;;;;11.98;2.63;;;19.70;60.40;;;;;;5113634;28;20544;-46
2022/05/13 12:27:45;;;;;;;9.77;2.53;;;19.40;60.10;;;;;;5115136;27;20365;-43
2022/05/13 12:30:29;;;;;;;10.20;2.80;;;19.40;60.20;;;;;;5103976;28;20024;-50
2022/05/13 12:33:06;;;;;;;10.77;2.78;;;19.30;62.20;;;;;;5095757;28;20439;-56
2022/05/13 12:38:25;;;;;;;15.45;2.53;;;19.10;61.80;;;;;;5094480;28;20131;-38
2022/05/13 12:40:59;;;;;;;12.70;2.53;;;19.00;61.10;;;;;;5094426;28;20504;-39
2022/05/13 12:43:51;;;;;;;11.73;2.85;;;19.30;63.90;;;;;;5094471;28;20020;-47
2022/05/13 12:46:21;;;;;;;15.60;3.00;;;19.30;59.70;;;;;;5094558;28;20096;-47
2022/05/13 12:49:02;;;;;;;12.25;2.75;;;19.30;61.80;;;;;;5093862;28;20024;-54
2022/05/13 12:52:03;;;;;;;15.13;3.42;;;19.60;62.20;;;;;;5084540;28;20377;-49
2022/05/13 12:54:42;;;;;;;12.73;2.63;;;19.70;61.40;;;;;;5093770;28;20098;-40
2022/05/13 12:57:14;;;;;;;16.00;2.85;;;20.00;63.60;;;;;;5114455;28;20492;-50
2022/05/13 12:59:42;;;;;;;12.98;3.13;;;20.30;59.50;;;;;;5113247;28;20039;-53
2022/05/13 13:02:09;;;;;;;10.23;2.55;;;20.10;57.30;;;;;;5103577;28;20031;-54
2022/05/13 13:04:42;;;;;;;15.80;2.63;;;20.00;59.40;;;;;;5093752;28;20028;-48
2022/05/13 13:07:10;;;;;;;13.13;3.05;;;20.00;60.70;;;;;;5094035;28;20027;-43
2022/05/13 13:09:45;;;;;;;11.20;2.47;;;20.10;62.50;;;;;;5075736;28;20035;-44
2022/05/13 13:12:34;;;;;;;13.48;2.90;;;20.10;57.70;;;;;;5073548;28;20021;-54
2022/05/13 13:15:06;;;;;;;10.10;2.50;;;20.00;57.50;;;;;;5073506;28;20036;-51
2022/05/13 13:17:43;;;;;;;11.95;2.58;;;19.60;57.10;;;;;;5073526;28;20123;-54
2022/05/13 13:20:12;;;;;;;14.82;3.72;;;19.40;59.20;;;;;;5092216;28;20074;-45
2022/05/13 13:22:41;;;;;;;12.53;2.90;;;19.30;60.80;;;;;;5089484;28;20039;-54
2022/05/13 13:25:25;;;;;;;;;;;19.30;60.50;;;;;;5086753;28;20093;-49
2022/05/13 13:28:10;;;;;;;13.98;2.53;;;19.30;60.30;;;;;;5081963;28;19908;-55
2022/05/13 13:30:43;;;;;;;12.88;2.58;;;19.20;61.10;;;;;;5084281;28;20020;-55
2022/05/13 13:33:10;;;;;;;16.55;2.80;;;19.10;62.40;;;;;;5070839;28;20036;-52